sensor_id;sensor_type;location;lat;lon;timestamp;pressure;altitude;pressure_sealevel;temperature;humidity
12475;BME280;6302;42.624;23.334;2023-02-04T00:01:31;93009.47;;;1.18;100.00
12475;BME280;6302;42.624;23.334;2023-02-04T00:03:58;93030.25;;;1.30;100.00
12475;BME280;6302;42.624;23.334;2023-02-04T00:06:25;93005.59;;;1.27;100.00
12475;BME280;6302;42.624;23.334;2023-02-04T00:08:52;93005.97;;;1.10;100.00
12475;BME280;6302;42.624;23.334;2023-02-04T00:11:20;93003.19;;;1.03;100.00
12475;BME280;6302;42.624;23.334;2023-02-04T00:13:47;92995.00;;;1.05;100.00
12475;BME280;6302;42.624;23.334;2023-02-04T00:16:14;92997.88;;;1.00;100.00
12475;BME280;6302;42.624;23.334;2023-02-04T00:18:40;92999.41;;;1.01;100.00
12475;BME280;6302;42.624;23.334;2023-02-04T00:21:07;93006.78;;;0.99;100.00
12475;BME280;6302;42.624;23.334;2023-02-04T00:23:34;93001.66;;;1.02;100.00
12475;BME280;6302;42.624;23.334;2023-02-04T00:26:01;92981.03;;;1.13;100.00
12475;BME280;6302;42.624;23.334;2023-02-04T00:28:29;92992.59;;;0.96;100.00
12475;BME280;6302;42.624;23.334;2023-02-04T00:30:56;92986.47;;;0.89;100.00
12475;BME280;6302;42.624;23.334;2023-02-04T00:33:22;92995.47;;;0.91;100.00
12475;BME280;6302;42.624;23.334;2023-02-04T00:35:49;92985.03;;;0.91;100.00
12475;BME280;6302;42.624;23.334;2023-02-04T00:38:16;92981.81;;;0.98;100.00
12475;BME280;6302;42.624;23.334;2023-02-04T00:40:43;92983.06;;;1.04;100.00
12475;BME280;6302;42.624;23.334;2023-02-04T00:43:09;92983.91;;;1.08;100.00
12475;BME280;6302;42.624;23.334;2023-02-04T00:45:38;92975.84;;;0.82;100.00
12475;BME280;6302;42.624;23.334;2023-02-04T00:48:05;92981.25;;;0.89;100.00
12475;BME280;6302;42.624;23.334;2023-02-04T00:50:31;92983.91;;;0.77;100.00
12475;BME280;6302;42.624;23.334;2023-02-04T00:52:59;92992.19;;;0.79;100.00
12475;BME280;6302;42.624;23.334;2023-02-04T00:55:26;92986.97;;;0.79;100.00
12475;BME280;6302;42.624;23.334;2023-02-04T00:57:53;92956.44;;;0.63;100.00
12475;BME280;6302;42.624;23.334;2023-02-04T01:00:20;92965.34;;;0.62;100.00
12475;BME280;6302;42.624;23.334;2023-02-04T01:02:48;92971.75;;;0.65;100.00
12475;BME280;6302;42.624;23.334;2023-02-04T01:05:15;92967.03;;;0.71;100.00
12475;BME280;6302;42.624;23.334;2023-02-04T01:07:41;92957.31;;;0.87;100.00
12475;BME280;6302;42.624;23.334;2023-02-04T01:10:09;92943.56;;;0.71;100.00
12475;BME280;6302;42.624;23.334;2023-02-04T01:12:36;92939.63;;;0.61;100.00
12475;BME280;6302;42.624;23.334;2023-02-04T01:15:04;92928.69;;;0.55;100.00
12475;BME280;6302;42.624;23.334;2023-02-04T01:17:30;92926.22;;;0.62;100.00
12475;BME280;6302;42.624;23.334;2023-02-04T01:19:59;92912.13;;;0.63;100.00
12475;BME280;6302;42.624;23.334;2023-02-04T01:22:27;92908.84;;;0.51;100.00
12475;BME280;6302;42.624;23.334;2023-02-04T01:24:53;92912.78;;;0.60;100.00
12475;BME280;6302;42.624;23.334;2023-02-04T01:27:20;92896.31;;;0.56;100.00
12475;BME280;6302;42.624;23.334;2023-02-04T01:29:47;92899.19;;;0.51;100.00
12475;BME280;6302;42.624;23.334;2023-02-04T01:32:14;92896.63;;;0.55;100.00
12475;BME280;6302;42.624;23.334;2023-02-04T01:34:40;92887.16;;;0.47;100.00
12475;BME280;6302;42.624;23.334;2023-02-04T01:37:11;92898.06;;;0.52;100.00
12475;BME280;6302;42.624;23.334;2023-02-04T01:39:38;92904.81;;;0.53;100.00
12475;BME280;6302;42.624;23.334;2023-02-04T01:42:08;92905.13;;;0.52;100.00
12475;BME280;6302;42.624;23.334;2023-02-04T01:44:35;92899.84;;;0.48;100.00
12475;BME280;6302;42.624;23.334;2023-02-04T01:47:02;92889.69;;;0.43;100.00
12475;BME280;6302;42.624;23.334;2023-02-04T01:49:28;92883.19;;;0.53;100.00
12475;BME280;6302;42.624;23.334;2023-02-04T01:51:55;92874.44;;;0.45;100.00
12475;BME280;6302;42.624;23.334;2023-02-04T01:54:24;92890.66;;;0.54;100.00
12475;BME280;6302;42.624;23.334;2023-02-04T01:56:51;92881.34;;;0.53;100.00
12475;BME280;6302;42.624;23.334;2023-02-04T01:59:20;92881.66;;;0.52;100.00
12475;BME280;6302;42.624;23.334;2023-02-04T02:01:50;92870.97;;;0.57;100.00
12475;BME280;6302;42.624;23.334;2023-02-04T02:04:20;92878.75;;;0.53;100.00
12475;BME280;6302;42.624;23.334;2023-02-04T02:06:51;92875.09;;;0.58;100.00
12475;BME280;6302;42.624;23.334;2023-02-04T02:09:19;92867.03;;;0.63;100.00
12475;BME280;6302;42.624;23.334;2023-02-04T02:11:48;92873.59;;;0.57;100.00
12475;BME280;6302;42.624;23.334;2023-02-04T02:14:15;92865.88;;;0.80;100.00
12475;BME280;6302;42.624;23.334;2023-02-04T02:16:42;92864.00;;;0.61;100.00
12475;BME280;6302;42.624;23.334;2023-02-04T02:19:11;92863.00;;;0.65;100.00
12475;BME280;6302;42.624;23.334;2023-02-04T02:21:44;92859.34;;;0.70;100.00
12475;BME280;6302;42.624;23.334;2023-02-04T02:24:28;92860.47;;;0.69;100.00
12475;BME280;6302;42.624;23.334;2023-02-04T02:26:57;92851.22;;;0.72;100.00
12475;BME280;6302;42.624;23.334;2023-02-04T02:29:26;92826.75;;;0.80;100.00
12475;BME280;6302;42.624;23.334;2023-02-04T02:31:53;92840.91;;;0.79;100.00
12475;BME280;6302;42.624;23.334;2023-02-04T02:34:22;92839.41;;;0.78;100.00
12475;BME280;6302;42.624;23.334;2023-02-04T02:36:49;92806.25;;;0.59;100.00
12475;BME280;6302;42.624;23.334;2023-02-04T02:39:16;92806.25;;;0.59;100.00
12475;BME280;6302;42.624;23.334;2023-02-04T02:41:45;92798.06;;;0.60;100.00
12475;BME280;6302;42.624;23.334;2023-02-04T02:44:13;92778.56;;;0.54;100.00
12475;BME280;6302;42.624;23.334;2023-02-04T02:46:40;92803.13;;;0.53;100.00
12475;BME280;6302;42.624;23.334;2023-02-04T02:49:12;92780.50;;;0.57;100.00
12475;BME280;6302;42.624;23.334;2023-02-04T02:51:41;92766.03;;;0.60;100.00
12475;BME280;6302;42.624;23.334;2023-02-04T02:54:17;92772.53;;;0.50;100.00
12475;BME280;6302;42.624;23.334;2023-02-04T02:56:46;92782.28;;;0.53;100.00
12475;BME280;6302;42.624;23.334;2023-02-04T02:59:14;92771.19;;;0.56;100.00
12475;BME280;6302;42.624;23.334;2023-02-04T03:01:41;92777.44;;;0.71;100.00
12475;BME280;6302;42.624;23.334;2023-02-04T03:04:09;92775.22;;;0.54;100.00
12475;BME280;6302;42.624;23.334;2023-02-04T03:06:37;92760.75;;;0.56;100.00
12475;BME280;6302;42.624;23.334;2023-02-04T03:09:04;92778.28;;;0.59;100.00
12475;BME280;6302;42.624;23.334;2023-02-04T03:11:31;92784.00;;;0.65;100.00
12475;BME280;6302;42.624;23.334;2023-02-04T03:13:59;92774.06;;;0.71;100.00
12475;BME280;6302;42.624;23.334;2023-02-04T03:16:27;92782.03;;;0.78;100.00
12475;BME280;6302;42.624;23.334;2023-02-04T03:18:54;92789.66;;;0.86;100.00
12475;BME280;6302;42.624;23.334;2023-02-04T03:21:21;92802.22;;;0.81;100.00
12475;BME280;6302;42.624;23.334;2023-02-04T03:23:48;92811.38;;;0.75;100.00
12475;BME280;6302;42.624;23.334;2023-02-04T03:26:15;92808.63;;;0.68;100.00
12475;BME280;6302;42.624;23.334;2023-02-04T03:28:42;92795.06;;;0.58;100.00
12475;BME280;6302;42.624;23.334;2023-02-04T03:31:10;92794.56;;;0.72;100.00
12475;BME280;6302;42.624;23.334;2023-02-04T03:33:37;92786.47;;;0.77;100.00
12475;BME280;6302;42.624;23.334;2023-02-04T03:36:05;92783.53;;;0.79;100.00
12475;BME280;6302;42.624;23.334;2023-02-04T03:38:31;92789.16;;;0.81;100.00
12475;BME280;6302;42.624;23.334;2023-02-04T03:40:59;92781.06;;;0.86;100.00
12475;BME280;6302;42.624;23.334;2023-02-04T03:43:26;92796.50;;;0.94;100.00
12475;BME280;6302;42.624;23.334;2023-02-04T03:45:52;92776.06;;;0.96;100.00
12475;BME280;6302;42.624;23.334;2023-02-04T03:48:21;92770.00;;;0.92;100.00
12475;BME280;6302;42.624;23.334;2023-02-04T03:50:47;92761.50;;;0.95;100.00
12475;BME280;6302;42.624;23.334;2023-02-04T03:53:14;92752.66;;;1.00;100.00
12475;BME280;6302;42.624;23.334;2023-02-04T03:55:41;92766.09;;;1.02;100.00
12475;BME280;6302;42.624;23.334;2023-02-04T03:58:08;92729.44;;;0.95;100.00
12475;BME280;6302;42.624;23.334;2023-02-04T04:00:34;92720.44;;;0.92;100.00
12475;BME280;6302;42.624;23.334;2023-02-04T04:03:01;92719.81;;;0.99;100.00
12475;BME280;6302;42.624;23.334;2023-02-04T04:05:29;92709.56;;;1.09;100.00
12475;BME280;6302;42.624;23.334;2023-02-04T04:07:56;92693.44;;;1.23;100.00
12475;BME280;6302;42.624;23.334;2023-02-04T04:10:23;92701.53;;;1.18;100.00
12475;BME280;6302;42.624;23.334;2023-02-04T04:12:50;92692.47;;;1.12;100.00
12475;BME280;6302;42.624;23.334;2023-02-04T04:15:17;92696.19;;;1.11;100.00
12475;BME280;6302;42.624;23.334;2023-02-04T04:17:44;92683.69;;;1.20;100.00
12475;BME280;6302;42.624;23.334;2023-02-04T04:20:10;92685.94;;;1.21;100.00
12475;BME280;6302;42.624;23.334;2023-02-04T04:22:39;92678.56;;;1.27;100.00
12475;BME280;6302;42.624;23.334;2023-02-04T04:25:06;92676.78;;;1.08;100.00
12475;BME280;6302;42.624;23.334;2023-02-04T04:27:33;92701.41;;;1.11;100.00
12475;BME280;6302;42.624;23.334;2023-02-04T04:30:00;92702.31;;;1.18;100.00
12475;BME280;6302;42.624;23.334;2023-02-04T04:32:27;92705.25;;;1.17;100.00
12475;BME280;6302;42.624;23.334;2023-02-04T04:34:54;92729.97;;;1.23;100.00
12475;BME280;6302;42.624;23.334;2023-02-04T04:37:20;92684.38;;;1.17;100.00
12475;BME280;6302;42.624;23.334;2023-02-04T04:39:49;92726.00;;;1.10;100.00
12475;BME280;6302;42.624;23.334;2023-02-04T04:42:15;92723.25;;;1.03;100.00
12475;BME280;6302;42.624;23.334;2023-02-04T04:44:43;92729.25;;;1.03;100.00
12475;BME280;6302;42.624;23.334;2023-02-04T04:47:10;92715.88;;;0.86;100.00
12475;BME280;6302;42.624;23.334;2023-02-04T04:49:36;92719.84;;;0.80;100.00
12475;BME280;6302;42.624;23.334;2023-02-04T04:52:04;92750.84;;;0.85;100.00
12475;BME280;6302;42.624;23.334;2023-02-04T04:54:30;92737.13;;;0.88;100.00
12475;BME280;6302;42.624;23.334;2023-02-04T04:56:58;92749.50;;;0.91;100.00
12475;BME280;6302;42.624;23.334;2023-02-04T04:59:25;92745.78;;;0.92;100.00
12475;BME280;6302;42.624;23.334;2023-02-04T05:01:52;92757.06;;;0.96;100.00
12475;BME280;6302;42.624;23.334;2023-02-04T05:04:19;92748.88;;;0.97;100.00
12475;BME280;6302;42.624;23.334;2023-02-04T05:06:45;92736.88;;;0.93;100.00
12475;BME280;6302;42.624;23.334;2023-02-04T05:09:12;92733.69;;;1.03;100.00
12475;BME280;6302;42.624;23.334;2023-02-04T05:11:41;92740.84;;;1.06;100.00
12475;BME280;6302;42.624;23.334;2023-02-04T05:14:09;92730.41;;;1.06;100.00
12475;BME280;6302;42.624;23.334;2023-02-04T05:16:36;92725.38;;;1.39;100.00
12475;BME280;6302;42.624;23.334;2023-02-04T05:19:03;92740.47;;;1.49;100.00
12475;BME280;6302;42.624;23.334;2023-02-04T05:21:30;92735.41;;;1.82;100.00
12475;BME280;6302;42.624;23.334;2023-02-04T05:23:56;92739.19;;;2.11;100.00
12475;BME280;6302;42.624;23.334;2023-02-04T05:26:23;92747.44;;;2.39;100.00
12475;BME280;6302;42.624;23.334;2023-02-04T05:28:51;92772.31;;;2.56;100.00
12475;BME280;6302;42.624;23.334;2023-02-04T05:31:19;92763.53;;;2.71;100.00
12475;BME280;6302;42.624;23.334;2023-02-04T05:33:46;92763.63;;;2.78;100.00
12475;BME280;6302;42.624;23.334;2023-02-04T05:36:13;92786.38;;;2.44;100.00
12475;BME280;6302;42.624;23.334;2023-02-04T05:38:39;92768.84;;;2.22;100.00
12475;BME280;6302;42.624;23.334;2023-02-04T05:41:06;92757.34;;;2.27;100.00
12475;BME280;6302;42.624;23.334;2023-02-04T05:43:33;92784.56;;;2.52;100.00
12475;BME280;6302;42.624;23.334;2023-02-04T05:46:00;92793.34;;;2.63;100.00
12475;BME280;6302;42.624;23.334;2023-02-04T05:48:28;92808.31;;;2.66;100.00
12475;BME280;6302;42.624;23.334;2023-02-04T05:50:55;92797.94;;;2.47;100.00
12475;BME280;6302;42.624;23.334;2023-02-04T05:53:22;92817.31;;;2.42;100.00
12475;BME280;6302;42.624;23.334;2023-02-04T05:55:49;92828.94;;;2.45;100.00
12475;BME280;6302;42.624;23.334;2023-02-04T05:58:15;92807.91;;;2.38;100.00
12475;BME280;6302;42.624;23.334;2023-02-04T06:00:42;92783.13;;;2.28;100.00
12475;BME280;6302;42.624;23.334;2023-02-04T06:03:09;92767.50;;;2.32;100.00
12475;BME280;6302;42.624;23.334;2023-02-04T06:05:37;92739.75;;;2.24;100.00
12475;BME280;6302;42.624;23.334;2023-02-04T06:08:04;92741.06;;;2.37;100.00
12475;BME280;6302;42.624;23.334;2023-02-04T06:10:31;92741.53;;;2.46;100.00
12475;BME280;6302;42.624;23.334;2023-02-04T06:12:57;92781.25;;;2.55;100.00
12475;BME280;6302;42.624;23.334;2023-02-04T06:15:24;92770.50;;;2.60;100.00
12475;BME280;6302;42.624;23.334;2023-02-04T06:17:51;92779.94;;;2.68;100.00
12475;BME280;6302;42.624;23.334;2023-02-04T06:20:18;92799.78;;;2.69;100.00
12475;BME280;6302;42.624;23.334;2023-02-04T06:22:46;92785.56;;;2.70;100.00
12475;BME280;6302;42.624;23.334;2023-02-04T06:25:16;92788.94;;;2.71;100.00
12475;BME280;6302;42.624;23.334;2023-02-04T06:27:42;92814.09;;;2.79;100.00
12475;BME280;6302;42.624;23.334;2023-02-04T06:30:10;92799.56;;;2.81;100.00
12475;BME280;6302;42.624;23.334;2023-02-04T06:32:37;92798.03;;;2.80;100.00
12475;BME280;6302;42.624;23.334;2023-02-04T06:35:04;92794.03;;;2.90;100.00
12475;BME280;6302;42.624;23.334;2023-02-04T06:37:31;92792.19;;;2.90;100.00
12475;BME280;6302;42.624;23.334;2023-02-04T06:39:59;92802.03;;;3.00;100.00
12475;BME280;6302;42.624;23.334;2023-02-04T06:42:26;92794.19;;;3.00;100.00
12475;BME280;6302;42.624;23.334;2023-02-04T06:44:53;92806.50;;;3.00;100.00
12475;BME280;6302;42.624;23.334;2023-02-04T06:47:20;92813.25;;;3.01;100.00
12475;BME280;6302;42.624;23.334;2023-02-04T06:49:46;92796.47;;;3.05;100.00
12475;BME280;6302;42.624;23.334;2023-02-04T06:52:13;92804.72;;;3.07;100.00
12475;BME280;6302;42.624;23.334;2023-02-04T06:54:40;92805.13;;;3.09;100.00
12475;BME280;6302;42.624;23.334;2023-02-04T06:57:08;92792.59;;;3.25;100.00
12475;BME280;6302;42.624;23.334;2023-02-04T06:59:37;92790.38;;;3.27;100.00
12475;BME280;6302;42.624;23.334;2023-02-04T07:02:05;92788.47;;;3.24;100.00
12475;BME280;6302;42.624;23.334;2023-02-04T07:04:33;92784.50;;;3.38;100.00
12475;BME280;6302;42.624;23.334;2023-02-04T07:07:00;92780.41;;;3.40;100.00
12475;BME280;6302;42.624;23.334;2023-02-04T07:09:27;92782.97;;;3.33;100.00
12475;BME280;6302;42.624;23.334;2023-02-04T07:11:53;92783.63;;;3.26;100.00
12475;BME280;6302;42.624;23.334;2023-02-04T07:14:22;92790.84;;;3.37;100.00
12475;BME280;6302;42.624;23.334;2023-02-04T07:16:48;92803.94;;;3.37;100.00
12475;BME280;6302;42.624;23.334;2023-02-04T07:19:15;92785.94;;;3.32;100.00
12475;BME280;6302;42.624;23.334;2023-02-04T07:21:42;92780.69;;;3.32;100.00
12475;BME280;6302;42.624;23.334;2023-02-04T07:24:08;92779.28;;;3.41;100.00
12475;BME280;6302;42.624;23.334;2023-02-04T07:26:35;92769.56;;;3.38;100.00
12475;BME280;6302;42.624;23.334;2023-02-04T07:29:02;92762.09;;;3.44;100.00
12475;BME280;6302;42.624;23.334;2023-02-04T07:31:30;92757.25;;;3.46;100.00
12475;BME280;6302;42.624;23.334;2023-02-04T07:33:57;92704.44;;;3.00;100.00
12475;BME280;6302;42.624;23.334;2023-02-04T07:36:24;92776.31;;;3.43;100.00
12475;BME280;6302;42.624;23.334;2023-02-04T07:38:51;92743.44;;;3.45;100.00
12475;BME280;6302;42.624;23.334;2023-02-04T07:41:18;92765.22;;;3.53;100.00
12475;BME280;6302;42.624;23.334;2023-02-04T07:43:45;92757.09;;;3.65;100.00
12475;BME280;6302;42.624;23.334;2023-02-04T07:46:12;92753.81;;;3.78;100.00
12475;BME280;6302;42.624;23.334;2023-02-04T07:48:40;92761.81;;;3.92;100.00
12475;BME280;6302;42.624;23.334;2023-02-04T07:51:07;92767.13;;;4.00;100.00
12475;BME280;6302;42.624;23.334;2023-02-04T07:53:34;92755.88;;;4.03;100.00
12475;BME280;6302;42.624;23.334;2023-02-04T07:56:01;92749.09;;;3.98;100.00
12475;BME280;6302;42.624;23.334;2023-02-04T07:58:28;92758.25;;;4.18;100.00
12475;BME280;6302;42.624;23.334;2023-02-04T08:00:55;92760.50;;;4.20;100.00
12475;BME280;6302;42.624;23.334;2023-02-04T08:03:21;92767.91;;;4.07;100.00
12475;BME280;6302;42.624;23.334;2023-02-04T08:05:50;92764.94;;;4.09;100.00
12475;BME280;6302;42.624;23.334;2023-02-04T08:08:17;92765.16;;;3.93;100.00
12475;BME280;6302;42.624;23.334;2023-02-04T08:10:43;92757.31;;;3.93;100.00
12475;BME280;6302;42.624;23.334;2023-02-04T08:13:10;92758.06;;;3.90;100.00
12475;BME280;6302;42.624;23.334;2023-02-04T08:15:37;92762.88;;;3.88;100.00
12475;BME280;6302;42.624;23.334;2023-02-04T08:18:04;92762.06;;;3.77;100.00
12475;BME280;6302;42.624;23.334;2023-02-04T08:20:31;92771.41;;;3.78;100.00
12475;BME280;6302;42.624;23.334;2023-02-04T08:22:59;92758.38;;;3.85;100.00
12475;BME280;6302;42.624;23.334;2023-02-04T08:25:26;92761.34;;;3.80;100.00
12475;BME280;6302;42.624;23.334;2023-02-04T08:27:54;92761.00;;;3.85;100.00
12475;BME280;6302;42.624;23.334;2023-02-04T08:30:20;92761.69;;;3.78;100.00
12475;BME280;6302;42.624;23.334;2023-02-04T08:32:47;92759.13;;;3.85;100.00
12475;BME280;6302;42.624;23.334;2023-02-04T08:35:15;92750.88;;;3.83;100.00
12475;BME280;6302;42.624;23.334;2023-02-04T08:37:42;92748.63;;;3.85;100.00
12475;BME280;6302;42.624;23.334;2023-02-04T08:40:11;92746.06;;;3.89;100.00
12475;BME280;6302;42.624;23.334;2023-02-04T08:42:38;92749.72;;;3.81;100.00
12475;BME280;6302;42.624;23.334;2023-02-04T08:45:05;92747.56;;;3.93;100.00
12475;BME280;6302;42.624;23.334;2023-02-04T08:47:32;92755.09;;;3.99;100.00
12475;BME280;6302;42.624;23.334;2023-02-04T08:49:59;92753.19;;;3.92;100.00
12475;BME280;6302;42.624;23.334;2023-02-04T08:52:25;92762.94;;;3.95;100.00
12475;BME280;6302;42.624;23.334;2023-02-04T08:54:52;92740.09;;;3.95;100.00
12475;BME280;6302;42.624;23.334;2023-02-04T08:57:20;92732.94;;;3.89;100.00
12475;BME280;6302;42.624;23.334;2023-02-04T08:59:47;92745.34;;;3.92;100.00
12475;BME280;6302;42.624;23.334;2023-02-04T09:02:14;92735.66;;;4.00;100.00
12475;BME280;6302;42.624;23.334;2023-02-04T09:04:40;92738.66;;;4.05;100.00
12475;BME280;6302;42.624;23.334;2023-02-04T09:07:10;92740.22;;;4.10;100.00
12475;BME280;6302;42.624;23.334;2023-02-04T09:09:37;92732.78;;;4.22;100.00
12475;BME280;6302;42.624;23.334;2023-02-04T09:12:04;92740.00;;;4.36;100.00
12475;BME280;6302;42.624;23.334;2023-02-04T09:14:32;92732.91;;;4.36;100.00
12475;BME280;6302;42.624;23.334;2023-02-04T09:16:58;92736.63;;;4.35;100.00
12475;BME280;6302;42.624;23.334;2023-02-04T09:19:26;92741.88;;;4.35;100.00
12475;BME280;6302;42.624;23.334;2023-02-04T09:21:53;92743.06;;;4.41;100.00
12475;BME280;6302;42.624;23.334;2023-02-04T09:24:20;92749.41;;;4.40;100.00
12475;BME280;6302;42.624;23.334;2023-02-04T09:26:48;92746.78;;;4.40;100.00
12475;BME280;6302;42.624;23.334;2023-02-04T09:29:15;92745.72;;;4.48;99.23
12475;BME280;6302;42.624;23.334;2023-02-04T09:31:43;92732.56;;;4.41;100.00
12475;BME280;6302;42.624;23.334;2023-02-04T09:34:10;92743.00;;;4.34;100.00
12475;BME280;6302;42.624;23.334;2023-02-04T09:36:37;92747.91;;;4.39;100.00
12475;BME280;6302;42.624;23.334;2023-02-04T09:39:04;92735.53;;;4.36;100.00
12475;BME280;6302;42.624;23.334;2023-02-04T09:41:31;92727.16;;;4.20;100.00
12475;BME280;6302;42.624;23.334;2023-02-04T09:43:59;92732.03;;;4.18;100.00
12475;BME280;6302;42.624;23.334;2023-02-04T09:46:27;92720.34;;;4.09;100.00
12475;BME280;6302;42.624;23.334;2023-02-04T09:48:57;92713.25;;;4.09;100.00
12475;BME280;6302;42.624;23.334;2023-02-04T09:51:27;92732.28;;;3.99;100.00
12475;BME280;6302;42.624;23.334;2023-02-04T09:54:01;92716.78;;;3.80;100.00
12475;BME280;6302;42.624;23.334;2023-02-04T09:56:29;92700.97;;;3.73;100.00
12475;BME280;6302;42.624;23.334;2023-02-04T09:58:56;92698.09;;;3.85;100.00
12475;BME280;6302;42.624;23.334;2023-02-04T10:01:24;92700.44;;;3.97;100.00
12475;BME280;6302;42.624;23.334;2023-02-04T10:03:56;92693.66;;;3.92;100.00
12475;BME280;6302;42.624;23.334;2023-02-04T10:06:26;92705.34;;;4.02;100.00
12475;BME280;6302;42.624;23.334;2023-02-04T10:08:53;92700.38;;;3.90;100.00
12475;BME280;6302;42.624;23.334;2023-02-04T10:11:22;92696.63;;;3.91;100.00
12475;BME280;6302;42.624;23.334;2023-02-04T10:13:52;92684.72;;;3.97;100.00
12475;BME280;6302;42.624;23.334;2023-02-04T10:16:20;92682.47;;;4.03;100.00
12475;BME280;6302;42.624;23.334;2023-02-04T10:18:56;92684.41;;;4.09;100.00
12475;BME280;6302;42.624;23.334;2023-02-04T10:21:26;92661.91;;;4.08;100.00
12475;BME280;6302;42.624;23.334;2023-02-04T10:23:55;92640.09;;;3.90;100.00
12475;BME280;6302;42.624;23.334;2023-02-04T10:26:24;92656.66;;;4.05;100.00
12475;BME280;6302;42.624;23.334;2023-02-04T10:28:57;92668.22;;;4.00;100.00
12475;BME280;6302;42.624;23.334;2023-02-04T10:31:32;92669.03;;;4.08;100.00
12475;BME280;6302;42.624;23.334;2023-02-04T10:34:06;92681.00;;;4.05;100.00
12475;BME280;6302;42.624;23.334;2023-02-04T10:36:33;92672.06;;;4.13;100.00
12475;BME280;6302;42.624;23.334;2023-02-04T10:39:00;92683.66;;;4.09;100.00
12475;BME280;6302;42.624;23.334;2023-02-04T10:41:27;92646.38;;;3.78;100.00
12475;BME280;6302;42.624;23.334;2023-02-04T10:44:01;92673.25;;;3.65;100.00
12475;BME280;6302;42.624;23.334;2023-02-04T10:46:29;92636.44;;;3.51;100.00
12475;BME280;6302;42.624;23.334;2023-02-04T10:48:56;92672.38;;;3.50;100.00
12475;BME280;6302;42.624;23.334;2023-02-04T10:51:24;92661.19;;;3.57;100.00
12475;BME280;6302;42.624;23.334;2023-02-04T10:53:51;92652.16;;;3.51;100.00
12475;BME280;6302;42.624;23.334;2023-02-04T10:56:35;92641.72;;;3.54;100.00
12475;BME280;6302;42.624;23.334;2023-02-04T10:59:02;92643.34;;;3.73;100.00
12475;BME280;6302;42.624;23.334;2023-02-04T11:01:30;92643.78;;;3.85;100.00
12475;BME280;6302;42.624;23.334;2023-02-04T11:03:57;92637.88;;;3.92;100.00
12475;BME280;6302;42.624;23.334;2023-02-04T11:06:25;92645.78;;;4.03;100.00
12475;BME280;6302;42.624;23.334;2023-02-04T11:08:53;92641.31;;;4.07;100.00
12475;BME280;6302;42.624;23.334;2023-02-04T11:11:23;92626.72;;;4.13;100.00
12475;BME280;6302;42.624;23.334;2023-02-04T11:13:58;92645.13;;;4.20;100.00
12475;BME280;6302;42.624;23.334;2023-02-04T11:16:27;92633.16;;;4.22;100.00
12475;BME280;6302;42.624;23.334;2023-02-04T11:18:56;92632.84;;;4.34;100.00
12475;BME280;6302;42.624;23.334;2023-02-04T11:21:28;92627.25;;;4.39;100.00
12475;BME280;6302;42.624;23.334;2023-02-04T11:24:19;92634.00;;;4.44;100.00
12475;BME280;6302;42.624;23.334;2023-02-04T11:26:48;92606.19;;;4.25;100.00
12475;BME280;6302;42.624;23.334;2023-02-04T11:29:28;92636.59;;;4.33;100.00
12475;BME280;6302;42.624;23.334;2023-02-04T11:32:03;92640.66;;;4.27;100.00
12475;BME280;6302;42.624;23.334;2023-02-04T11:34:44;92631.69;;;4.28;100.00
12475;BME280;6302;42.624;23.334;2023-02-04T11:37:26;92649.31;;;4.31;100.00
12475;BME280;6302;42.624;23.334;2023-02-04T11:39:57;92647.44;;;4.32;100.00
12475;BME280;6302;42.624;23.334;2023-02-04T11:42:30;92636.91;;;4.21;100.00
12475;BME280;6302;42.624;23.334;2023-02-04T11:44:59;92644.34;;;4.16;100.00
12475;BME280;6302;42.624;23.334;2023-02-04T11:47:33;92642.13;;;4.14;100.00
12475;BME280;6302;42.624;23.334;2023-02-04T11:50:02;92644.78;;;4.21;100.00
12475;BME280;6302;42.624;23.334;2023-02-04T11:52:37;92651.16;;;4.27;100.00
12475;BME280;6302;42.624;23.334;2023-02-04T11:55:04;92644.41;;;4.26;100.00
12475;BME280;6302;42.624;23.334;2023-02-04T11:57:37;92641.00;;;4.19;100.00
12475;BME280;6302;42.624;23.334;2023-02-04T12:00:11;92654.88;;;4.19;100.00
12475;BME280;6302;42.624;23.334;2023-02-04T12:02:41;92641.81;;;4.26;100.00
12475;BME280;6302;42.624;23.334;2023-02-04T12:05:11;92627.84;;;4.08;100.00
12475;BME280;6302;42.624;23.334;2023-02-04T12:07:40;92626.28;;;3.97;100.00
12475;BME280;6302;42.624;23.334;2023-02-04T12:10:12;92632.31;;;4.04;100.00
12475;BME280;6302;42.624;23.334;2023-02-04T12:12:42;92632.09;;;3.69;100.00
12475;BME280;6302;42.624;23.334;2023-02-04T12:15:14;92631.00;;;3.73;100.00
12475;BME280;6302;42.624;23.334;2023-02-04T12:17:43;92605.13;;;3.65;100.00
12475;BME280;6302;42.624;23.334;2023-02-04T12:20:12;92609.47;;;3.47;100.00
12475;BME280;6302;42.624;23.334;2023-02-04T12:22:40;92629.09;;;3.67;100.00
12475;BME280;6302;42.624;23.334;2023-02-04T12:25:07;92623.47;;;3.65;100.00
12475;BME280;6302;42.624;23.334;2023-02-04T12:27:34;92614.13;;;3.67;100.00
12475;BME280;6302;42.624;23.334;2023-02-04T12:30:01;92612.56;;;3.59;100.00
12475;BME280;6302;42.624;23.334;2023-02-04T12:32:28;92625.63;;;3.56;100.00
12475;BME280;6302;42.624;23.334;2023-02-04T12:34:55;92603.56;;;3.57;100.00
12475;BME280;6302;42.624;23.334;2023-02-04T12:37:21;92605.81;;;3.58;100.00
12475;BME280;6302;42.624;23.334;2023-02-04T12:39:49;92595.28;;;3.51;100.00
12475;BME280;6302;42.624;23.334;2023-02-04T12:42:16;92600.91;;;3.50;100.00
12475;BME280;6302;42.624;23.334;2023-02-04T12:44:43;92614.75;;;3.54;100.00
12475;BME280;6302;42.624;23.334;2023-02-04T12:47:10;92614.75;;;3.50;100.00
12475;BME280;6302;42.624;23.334;2023-02-04T12:49:37;92615.53;;;3.54;100.00
12475;BME280;6302;42.624;23.334;2023-02-04T12:52:04;92583.19;;;3.36;100.00
12475;BME280;6302;42.624;23.334;2023-02-04T12:54:31;92612.59;;;3.63;100.00
12475;BME280;6302;42.624;23.334;2023-02-04T12:56:59;92605.16;;;3.75;100.00
12475;BME280;6302;42.624;23.334;2023-02-04T12:59:27;92609.31;;;3.76;100.00
12475;BME280;6302;42.624;23.334;2023-02-04T13:01:56;92628.38;;;3.70;100.00
12475;BME280;6302;42.624;23.334;2023-02-04T13:04:24;92617.09;;;3.66;100.00